createdAt,value
2023-05-15T00:01:24.826Z,101653.41
2023-05-15T00:03:52.219Z,101665.34
2023-05-15T00:06:19.005Z,101665.28
2023-05-15T00:08:45.585Z,101660.88
2023-05-15T00:11:12.480Z,101661.75
2023-05-15T00:13:39.145Z,101667.09
2023-05-15T00:16:09.439Z,101649.78
2023-05-15T00:18:36.431Z,101650.66
2023-05-15T00:21:03.352Z,101650.59
2023-05-15T00:23:29.895Z,101647.34
2023-05-15T00:25:56.482Z,101646.38
2023-05-15T00:28:23.033Z,101640.16
2023-05-15T00:30:49.702Z,101640.16
2023-05-15T00:33:16.916Z,101634.09
2023-05-15T00:35:43.618Z,101639.25
2023-05-15T00:38:10.282Z,101642.63
2023-05-15T00:40:38.581Z,101633.13
2023-05-15T00:43:06.581Z,101631.31
2023-05-15T00:45:34.346Z,101632.13
2023-05-15T00:48:01.803Z,101628.56
2023-05-15T00:50:30.485Z,101631.09
2023-05-15T00:52:57.535Z,101627.59
2023-05-15T00:55:26.461Z,101636.16
2023-05-15T00:57:53.991Z,101619.78
2023-05-15T01:00:21.114Z,101625.69
2023-05-15T01:02:47.886Z,101611.97
2023-05-15T01:05:14.657Z,101624.94
2023-05-15T01:08:11.317Z,101617.94
2023-05-15T01:10:39.598Z,101611.91
2023-05-15T01:13:09.265Z,101606.75
2023-05-15T01:15:36.265Z,101605.09
2023-05-15T01:18:03.436Z,101612.13
2023-05-15T01:20:39.315Z,101609.50
2023-05-15T01:23:12.205Z,101614.69
2023-05-15T01:26:01.200Z,101615.59
2023-05-15T01:28:33.889Z,101621.81
2023-05-15T01:31:10.149Z,101621.19
2023-05-15T01:33:43.294Z,101611.81
2023-05-15T01:36:15.491Z,101608.47
2023-05-15T01:38:49.570Z,101609.38
2023-05-15T01:41:23.144Z,101614.50
2023-05-15T01:44:00.807Z,101617.81
2023-05-15T01:46:31.235Z,101621.19
2023-05-15T01:49:00.987Z,101620.28
2023-05-15T01:51:29.359Z,101620.16
2023-05-15T01:53:58.503Z,101615.94
2023-05-15T01:56:27.229Z,101616.72
2023-05-15T01:58:55.248Z,101621.81
2023-05-15T02:01:23.144Z,101620.06
2023-05-15T02:03:50.215Z,101623.66
2023-05-15T02:06:17.065Z,101630.38
2023-05-15T02:08:46.665Z,101616.50
2023-05-15T02:11:13.762Z,101627.06
2023-05-15T02:13:42.260Z,101627.94
2023-05-15T02:16:08.984Z,101629.72
2023-05-15T02:18:35.851Z,101616.72
2023-05-15T02:21:03.039Z,101615.09
2023-05-15T02:23:29.721Z,101622.88
2023-05-15T02:26:21.559Z,101623.59
2023-05-15T02:28:57.573Z,101617.56
2023-05-15T02:31:35.797Z,101614.03
2023-05-15T02:34:28.028Z,101615.75
2023-05-15T02:36:57.934Z,101620.06
2023-05-15T02:39:25.258Z,101609.69
2023-05-15T02:41:53.703Z,101608.00
2023-05-15T02:44:21.858Z,101617.47
2023-05-15T02:46:50.455Z,101616.66
2023-05-15T02:49:17.083Z,101613.28
2023-05-15T02:51:43.979Z,101609.91
2023-05-15T02:54:11.234Z,101611.69
2023-05-15T02:56:37.817Z,101603.03
2023-05-15T02:59:05.420Z,101599.56
2023-05-15T03:01:32.092Z,101613.31
2023-05-15T03:03:58.899Z,101602.09
2023-05-15T03:06:25.712Z,101604.78
2023-05-15T03:08:52.265Z,101607.34
2023-05-15T03:11:19.332Z,101596.91
2023-05-15T03:13:45.872Z,101597.81
2023-05-15T03:16:12.412Z,101599.56
2023-05-15T03:18:39.014Z,101603.03
2023-05-15T03:21:08.416Z,101596.16
2023-05-15T03:23:37.652Z,101593.34
2023-05-15T03:26:04.642Z,101596.75
2023-05-15T03:28:31.309Z,101588.97
2023-05-15T03:30:57.933Z,101593.16
2023-05-15T03:33:25.345Z,101586.00
2023-05-15T03:35:52.526Z,101588.34
2023-05-15T03:38:20.301Z,101598.72
2023-05-15T03:40:48.364Z,101592.63
2023-05-15T03:43:16.256Z,101595.25
2023-05-15T03:45:42.803Z,101603.03
2023-05-15T03:48:09.563Z,101590.09
2023-05-15T03:50:36.181Z,101595.34
2023-05-15T03:53:02.785Z,101578.09
2023-05-15T03:55:29.373Z,101591.91
2023-05-15T03:57:55.945Z,101590.13
2023-05-15T04:00:23.678Z,101588.34
2023-05-15T04:02:50.932Z,101585.72
2023-05-15T04:05:19.678Z,101596.00
2023-05-15T04:07:46.330Z,101596.00
2023-05-15T04:10:12.947Z,101595.16
2023-05-15T04:12:39.517Z,101596.94
2023-05-15T04:15:23.883Z,101600.47
2023-05-15T04:17:53.191Z,101603.00
2023-05-15T04:20:22.275Z,101607.25
2023-05-15T04:22:49.315Z,101609.75
2023-05-15T04:25:16.591Z,101611.56
2023-05-15T04:27:43.866Z,101609.06
2023-05-15T04:30:11.516Z,101617.63
2023-05-15T04:32:39.610Z,101612.44
2023-05-15T04:35:10.662Z,101617.63
2023-05-15T04:37:38.480Z,101621.16
2023-05-15T04:40:07.163Z,101624.69
2023-05-15T04:42:34.666Z,101625.56
2023-05-15T04:45:02.383Z,101616.09
2023-05-15T04:47:29.017Z,101616.22
2023-05-15T04:49:55.551Z,101614.34
2023-05-15T04:52:22.163Z,101602.47
2023-05-15T04:54:51.001Z,101609.53
2023-05-15T04:57:17.606Z,101599.34
2023-05-15T04:59:44.195Z,101592.50
2023-05-15T05:02:10.915Z,101585.56
2023-05-15T05:04:37.497Z,101600.50
2023-05-15T05:07:05.823Z,101594.72
2023-05-15T05:09:32.379Z,101591.28
2023-05-15T05:11:59.668Z,101580.13
2023-05-15T05:14:27.239Z,101583.69
2023-05-15T05:16:53.803Z,101579.75
2023-05-15T05:19:20.431Z,101591.25
2023-05-15T05:21:46.962Z,101582.22
2023-05-15T05:24:13.502Z,101575.66
2023-05-15T05:26:40.001Z,101582.13
2023-05-15T05:29:06.500Z,101587.03
2023-05-15T05:31:33.100Z,101583.38
2023-05-15T05:33:59.773Z,101592.97
2023-05-15T05:36:26.568Z,101585.16
2023-05-15T05:38:53.160Z,101594.00
2023-05-15T05:41:19.683Z,101591.78
2023-05-15T05:43:46.225Z,101576.66
2023-05-15T05:46:12.788Z,101589.56
2023-05-15T05:48:39.405Z,101581.84
2023-05-15T05:51:06.055Z,101567.38
2023-05-15T05:53:32.602Z,101565.19
2023-05-15T05:55:59.170Z,101572.50
2023-05-15T05:58:26.440Z,101579.38
2023-05-15T06:00:53.882Z,101573.97
2023-05-15T06:03:21.508Z,101562.69
2023-05-15T06:05:48.715Z,101555.56
2023-05-15T06:08:15.432Z,101561.50
2023-05-15T06:10:42.441Z,101560.44
2023-05-15T06:13:08.993Z,101572.41
2023-05-15T06:15:35.680Z,101579.13
2023-05-15T06:18:02.267Z,101582.53
2023-05-15T06:20:28.950Z,101579.81
2023-05-15T06:22:55.554Z,101579.66
2023-05-15T06:25:22.224Z,101574.44
2023-05-15T06:27:48.835Z,101582.16
2023-05-15T06:30:15.555Z,101575.41
2023-05-15T06:32:42.324Z,101571.94
2023-05-15T06:35:09.977Z,101571.91
2023-05-15T06:37:37.262Z,101575.34
2023-05-15T06:40:05.657Z,101578.16
2023-05-15T06:42:32.742Z,101569.44
2023-05-15T06:44:59.600Z,101574.75
2023-05-15T06:47:26.276Z,101560.19
2023-05-15T06:49:54.185Z,101560.59
2023-05-15T06:52:20.798Z,101556.19
2023-05-15T06:54:47.420Z,101557.16
2023-05-15T06:57:14.042Z,101564.06
2023-05-15T06:59:40.880Z,101561.47
2023-05-15T07:02:07.684Z,101556.53
2023-05-15T07:04:34.358Z,101559.16
2023-05-15T07:07:00.936Z,101560.41
2023-05-15T07:09:27.478Z,101554.47
2023-05-15T07:11:54.036Z,101560.53
2023-05-15T07:14:20.605Z,101562.31
2023-05-15T07:16:47.317Z,101558.00
2023-05-15T07:19:17.357Z,101552.81
2023-05-15T07:21:44.009Z,101550.22
2023-05-15T07:24:10.584Z,101557.13
2023-05-15T07:26:46.586Z,101552.81
2023-05-15T07:29:17.223Z,101552.84
2023-05-15T07:31:44.825Z,101557.16
2023-05-15T07:34:11.831Z,101558.88
2023-05-15T07:36:38.359Z,101555.41
2023-05-15T07:39:05.023Z,101557.13
2023-05-15T07:41:33.383Z,101561.47
2023-05-15T07:43:59.962Z,101558.88
2023-05-15T07:46:27.231Z,101559.75
2023-05-15T07:48:53.962Z,101561.44
2023-05-15T07:51:20.456Z,101557.88
2023-05-15T07:53:47.158Z,101569.13
2023-05-15T07:56:13.726Z,101569.09
2023-05-15T07:58:40.331Z,101562.19
2023-05-15T08:01:07.584Z,101564.91
2023-05-15T08:03:34.260Z,101564.06
2023-05-15T08:06:00.969Z,101556.28
2023-05-15T08:08:27.573Z,101570.13
2023-05-15T08:10:54.349Z,101578.78
2023-05-15T08:13:20.993Z,101574.47
2023-05-15T08:15:47.546Z,101568.41
2023-05-15T08:18:14.144Z,101569.31
2023-05-15T08:20:40.828Z,101564.09
2023-05-15T08:23:07.751Z,101568.41
2023-05-15T08:25:34.370Z,101573.56
2023-05-15T08:28:02.226Z,101576.16
2023-05-15T08:30:28.815Z,101570.97
2023-05-15T08:32:55.504Z,101571.03
2023-05-15T08:35:22.088Z,101569.22
2023-05-15T08:37:48.619Z,101573.59
2023-05-15T08:40:15.502Z,101570.13
2023-05-15T08:42:47.064Z,101571.91
2023-05-15T08:45:14.357Z,101574.44
2023-05-15T08:47:42.505Z,101572.72
2023-05-15T08:50:14.179Z,101564.91
2023-05-15T08:52:46.783Z,101570.97
2023-05-15T08:55:17.270Z,101577.00
2023-05-15T08:57:45.167Z,101571.78
2023-05-15T09:00:14.523Z,101577.88
2023-05-15T09:02:42.762Z,101573.53
2023-05-15T09:05:10.449Z,101564.06
2023-05-15T09:07:39.065Z,101577.00
2023-05-15T09:10:06.365Z,101582.09
2023-05-15T09:12:34.598Z,101588.06
2023-05-15T09:15:17.804Z,101584.63
2023-05-15T09:17:45.803Z,101590.75
2023-05-15T09:20:32.522Z,101591.59
2023-05-15T09:23:00.925Z,101582.13
2023-05-15T09:25:40.517Z,101594.19
2023-05-15T09:28:27.962Z,101593.38
2023-05-15T09:31:03.226Z,101582.09
2023-05-15T09:33:40.807Z,101576.91
2023-05-15T09:36:09.297Z,101584.69
2023-05-15T09:38:42.097Z,101595.13
2023-05-15T09:41:09.422Z,101583.81
2023-05-15T09:43:40.334Z,101583.84
2023-05-15T09:46:13.028Z,101582.97
2023-05-15T09:48:39.901Z,101580.38
2023-05-15T09:51:15.955Z,101582.16
2023-05-15T09:53:42.763Z,101590.00
2023-05-15T09:56:10.598Z,101583.91
2023-05-15T09:58:37.223Z,101587.38
2023-05-15T10:01:10.695Z,101589.94
2023-05-15T10:03:37.241Z,101586.47
2023-05-15T10:06:04.692Z,101582.94
2023-05-15T10:08:31.548Z,101587.97
2023-05-15T10:11:01.265Z,101588.84
2023-05-15T10:13:29.263Z,101585.41
2023-05-15T10:15:57.566Z,101587.94
2023-05-15T10:18:27.232Z,101589.66
2023-05-15T10:20:55.048Z,101593.09
2023-05-15T10:23:22.457Z,101584.47
2023-05-15T10:26:02.171Z,101594.78
2023-05-15T10:28:28.937Z,101601.66
2023-05-15T10:30:57.734Z,101595.59
2023-05-15T10:33:25.047Z,101601.63
2023-05-15T10:35:52.202Z,101595.56
2023-05-15T10:38:21.799Z,101599.84
2023-05-15T10:40:48.874Z,101595.56
2023-05-15T10:43:15.873Z,101594.69
2023-05-15T10:45:44.153Z,101594.66
2023-05-15T10:48:12.506Z,101601.59
2023-05-15T10:50:39.516Z,101597.25
2023-05-15T10:53:06.542Z,101592.94
2023-05-15T10:55:33.109Z,101598.09
2023-05-15T10:57:59.729Z,101588.53
2023-05-15T11:00:29.268Z,101591.19
2023-05-15T11:02:58.598Z,101585.16
2023-05-15T11:05:25.872Z,101584.31
2023-05-15T11:08:21.633Z,101592.09
2023-05-15T11:10:48.156Z,101591.19
2023-05-15T11:13:14.741Z,101588.59
2023-05-15T11:15:43.508Z,101586.84
2023-05-15T11:18:10.351Z,101587.75
2023-05-15T11:21:02.987Z,101582.56
2023-05-15T11:23:38.388Z,101586.94
2023-05-15T11:26:05.750Z,101584.34
2023-05-15T11:28:43.486Z,101583.50
2023-05-15T11:31:10.252Z,101586.06
2023-05-15T11:33:39.034Z,101582.66
2023-05-15T11:36:06.887Z,101589.63
2023-05-15T11:38:39.864Z,101585.34
2023-05-15T11:41:18.206Z,101577.56
2023-05-15T11:43:44.942Z,101581.97
2023-05-15T11:46:13.821Z,101587.19
2023-05-15T11:48:45.489Z,101582.97
2023-05-15T11:51:21.754Z,101567.41
2023-05-15T11:53:53.899Z,101575.22
2023-05-15T11:56:31.097Z,101562.25
2023-05-15T11:58:59.749Z,101562.28
2023-05-15T12:01:26.596Z,101557.09
2023-05-15T12:03:54.925Z,101564.06
2023-05-15T12:06:22.728Z,101558.03
2023-05-15T12:08:53.630Z,101561.47
2023-05-15T12:11:24.157Z,101561.47
2023-05-15T12:13:54.994Z,101565.78
2023-05-15T12:16:28.147Z,101559.75
2023-05-15T12:18:57.155Z,101561.47
2023-05-15T12:21:23.895Z,101558.00
2023-05-15T12:24:03.480Z,101560.63
2023-05-15T12:26:34.289Z,101557.16
2023-05-15T12:29:01.221Z,101566.69
2023-05-15T12:31:28.121Z,101564.09
2023-05-15T12:33:56.088Z,101559.78
2023-05-15T12:36:22.867Z,101566.66
2023-05-15T12:38:49.603Z,101554.53
2023-05-15T12:41:16.414Z,101551.03
2023-05-15T12:43:43.069Z,101559.69
2023-05-15T12:46:09.789Z,101567.56
2023-05-15T12:48:36.823Z,101554.56
2023-05-15T12:51:09.553Z,101557.19
2023-05-15T12:53:36.440Z,101555.41
2023-05-15T12:56:04.672Z,101558.91
2023-05-15T12:58:31.552Z,101558.03
2023-05-15T13:00:58.931Z,101553.69
2023-05-15T13:03:26.521Z,101558.00
2023-05-15T13:05:53.405Z,101557.97
2023-05-15T13:08:20.372Z,101555.34
2023-05-15T13:10:47.787Z,101560.47
2023-05-15T13:13:15.179Z,101560.50
2023-05-15T13:15:45.655Z,101561.34
2023-05-15T13:18:17.519Z,101559.59
2023-05-15T13:20:46.282Z,101560.19
2023-05-15T13:23:17.827Z,101555.78
2023-05-15T13:25:45.265Z,101549.59
2023-05-15T13:28:12.835Z,101539.78
2023-05-15T13:30:43.794Z,101553.63
2023-05-15T13:33:12.632Z,101543.38
2023-05-15T13:35:41.304Z,101555.72
2023-05-15T13:38:11.151Z,101552.22
2023-05-15T13:40:38.431Z,101568.00
2023-05-15T13:43:06.724Z,101560.22
2023-05-15T13:45:33.669Z,101570.72
2023-05-15T13:48:00.441Z,101564.78
2023-05-15T13:50:27.291Z,101562.25
2023-05-15T13:52:54.596Z,101571.84
2023-05-15T13:55:22.964Z,101573.63
2023-05-15T13:57:49.888Z,101569.31
2023-05-15T14:00:17.410Z,101572.72
2023-05-15T14:02:44.418Z,101580.50
2023-05-15T14:05:12.962Z,101588.22
2023-05-15T14:07:40.551Z,101584.75
2023-05-15T14:10:08.260Z,101578.72
2023-05-15T14:12:35.154Z,101586.47
2023-05-15T14:15:01.740Z,101589.91
2023-05-15T14:17:28.924Z,101591.63
2023-05-15T14:19:55.599Z,101587.31
2023-05-15T14:22:24.932Z,101582.06
2023-05-15T14:24:52.535Z,101586.41
2023-05-15T14:27:19.588Z,101588.13
2023-05-15T14:29:46.291Z,101592.44
2023-05-15T14:32:12.896Z,101597.63
2023-05-15T14:34:39.534Z,101592.31
2023-05-15T14:37:06.113Z,101588.88
2023-05-15T14:39:32.958Z,101603.53
2023-05-15T14:41:59.524Z,101602.72
2023-05-15T14:44:26.074Z,101598.34
2023-05-15T14:47:06.772Z,101597.41
2023-05-15T14:49:33.897Z,101596.41
2023-05-15T14:52:00.580Z,101603.38
2023-05-15T14:54:27.144Z,101598.19
2023-05-15T14:56:55.136Z,101596.47
2023-05-15T14:59:22.887Z,101591.25
2023-05-15T15:01:49.475Z,101598.16
2023-05-15T15:04:16.124Z,101599.03
2023-05-15T15:06:44.116Z,101605.91
2023-05-15T15:09:10.786Z,101598.94
2023-05-15T15:11:37.379Z,101608.38
2023-05-15T15:14:05.139Z,101604.94
2023-05-15T15:16:31.881Z,101596.25
2023-05-15T15:18:58.480Z,101601.44
2023-05-15T15:21:25.451Z,101603.13
2023-05-15T15:23:52.193Z,101604.88
2023-05-15T15:26:18.793Z,101608.34
2023-05-15T15:28:45.345Z,101597.97
2023-05-15T15:31:12.343Z,101595.28
2023-05-15T15:33:38.997Z,101611.66
2023-05-15T15:36:06.001Z,101611.69
2023-05-15T15:38:32.569Z,101606.50
2023-05-15T15:40:59.109Z,101613.41
2023-05-15T15:43:25.733Z,101606.53
2023-05-15T15:45:53.785Z,101605.72
2023-05-15T15:48:20.868Z,101603.88
2023-05-15T15:50:47.456Z,101608.22
2023-05-15T15:53:14.047Z,101607.41
2023-05-15T15:55:40.856Z,101600.50
2023-05-15T15:58:07.406Z,101601.47
2023-05-15T16:00:34.103Z,101610.97
2023-05-15T16:03:00.915Z,101609.31
2023-05-15T16:05:27.566Z,101604.13
2023-05-15T16:07:54.212Z,101611.06
2023-05-15T16:10:20.823Z,101611.03
2023-05-15T16:12:47.433Z,101612.75
2023-05-15T16:15:23.022Z,101613.63
2023-05-15T16:17:54.176Z,101623.94
2023-05-15T16:20:21.956Z,101624.75
2023-05-15T16:22:48.610Z,101623.06
2023-05-15T16:25:15.220Z,101623.88
2023-05-15T16:27:41.753Z,101622.25
2023-05-15T16:30:09.470Z,101626.59
2023-05-15T16:32:36.318Z,101625.72
2023-05-15T16:35:03.426Z,101624.00
2023-05-15T16:37:29.986Z,101622.16
2023-05-15T16:39:56.777Z,101635.16
2023-05-15T16:42:23.426Z,101642.94
2023-05-15T16:44:50.056Z,101647.22
2023-05-15T16:47:16.641Z,101646.41
2023-05-15T16:49:44.575Z,101643.81
2023-05-15T16:52:12.064Z,101642.03
2023-05-15T16:54:41.561Z,101651.56
2023-05-15T16:57:08.150Z,101646.25
2023-05-15T16:59:34.803Z,101649.72
2023-05-15T17:02:01.506Z,101655.72
2023-05-15T17:04:29.103Z,101662.63
2023-05-15T17:06:56.945Z,101664.28
2023-05-15T17:09:23.506Z,101669.34
2023-05-15T17:11:50.048Z,101661.56
2023-05-15T17:14:16.650Z,101666.66
2023-05-15T17:16:43.439Z,101670.84
2023-05-15T17:19:10.213Z,101668.16
2023-05-15T17:21:37.539Z,101675.84
2023-05-15T17:24:04.313Z,101683.47
2023-05-15T17:26:30.884Z,101676.44
2023-05-15T17:28:57.458Z,101677.22
2023-05-15T17:31:24.048Z,101677.94
2023-05-15T17:33:50.828Z,101679.72
2023-05-15T17:36:17.401Z,101692.63
2023-05-15T17:38:43.956Z,101693.53
2023-05-15T17:41:10.569Z,101693.53
2023-05-15T17:43:37.134Z,101697.69
2023-05-15T17:46:05.672Z,101692.59
2023-05-15T17:48:32.922Z,101702.88
2023-05-15T17:50:59.607Z,101709.69
2023-05-15T17:53:26.737Z,101708.72
2023-05-15T17:55:53.336Z,101702.66
2023-05-15T17:58:21.187Z,101706.28
2023-05-15T18:00:47.970Z,101706.06
2023-05-15T18:03:14.714Z,101708.63
2023-05-15T18:05:41.399Z,101706.03
2023-05-15T18:08:08.122Z,101712.94
2023-05-15T18:10:34.677Z,101726.59
2023-05-15T18:13:01.250Z,101736.97
2023-05-15T18:15:28.183Z,101722.22
2023-05-15T18:17:55.110Z,101726.63
2023-05-15T18:20:21.923Z,101723.03
2023-05-15T18:22:49.625Z,101727.47
2023-05-15T18:25:16.370Z,101733.44
2023-05-15T18:27:43.089Z,101723.19
2023-05-15T18:30:10.331Z,101729.16
2023-05-15T18:32:37.006Z,101730.81
2023-05-15T18:35:03.892Z,101739.34
2023-05-15T18:37:30.796Z,101746.22
2023-05-15T18:39:58.732Z,101738.47
2023-05-15T18:42:26.021Z,101745.47
2023-05-15T18:44:52.736Z,101741.06
2023-05-15T18:47:19.480Z,101766.81
2023-05-15T18:49:46.324Z,101760.53
2023-05-15T18:52:13.042Z,101767.25
2023-05-15T18:54:41.296Z,101773.88
2023-05-15T18:57:08.308Z,101775.44
2023-05-15T18:59:35.039Z,101770.06
2023-05-15T19:02:01.714Z,101788.69
2023-05-15T19:04:28.368Z,101781.03
2023-05-15T19:06:54.945Z,101790.03
2023-05-15T19:09:21.530Z,101799.94
2023-05-15T19:11:49.608Z,101785.31
2023-05-15T19:14:17.965Z,101804.38
2023-05-15T19:16:46.095Z,101804.84
2023-05-15T19:19:12.860Z,101805.09
2023-05-15T19:21:39.698Z,101814.41
2023-05-15T19:24:06.609Z,101810.91
2023-05-15T19:26:33.411Z,101821.25
2023-05-15T19:29:00.060Z,101837.41
2023-05-15T19:31:31.369Z,101829.47
2023-05-15T19:33:59.127Z,101841.66
2023-05-15T19:36:25.953Z,101832.09
2023-05-15T19:38:52.920Z,101851.88
2023-05-15T19:41:19.483Z,101856.16
2023-05-15T19:43:46.457Z,101869.59
2023-05-15T19:46:13.884Z,101869.22
2023-05-15T19:48:40.704Z,101874.38
2023-05-15T19:51:07.353Z,101875.16
2023-05-15T19:53:34.030Z,101873.22
2023-05-15T19:56:00.888Z,101879.06
2023-05-15T19:58:27.479Z,101877.91
2023-05-15T20:00:54.516Z,101877.06
2023-05-15T20:03:21.768Z,101875.41
2023-05-15T20:05:48.470Z,101896.75
2023-05-15T20:08:17.009Z,101897.59
2023-05-15T20:10:44.554Z,101904.34
2023-05-15T20:13:11.689Z,101896.63
2023-05-15T20:15:40.012Z,101900.19
2023-05-15T20:18:07.416Z,101903.72
2023-05-15T20:20:34.721Z,101901.22
2023-05-15T20:23:01.301Z,101901.41
2023-05-15T20:25:29.171Z,101915.22
2023-05-15T20:27:57.135Z,101910.84
2023-05-15T20:30:24.327Z,101908.50
2023-05-15T20:32:51.402Z,101929.06
2023-05-15T20:35:18.107Z,101915.31
2023-05-15T20:37:45.462Z,101910.28
2023-05-15T20:40:13.157Z,101939.56
2023-05-15T20:42:40.043Z,101918.81
2023-05-15T20:45:09.012Z,101923.41
2023-05-15T20:47:36.018Z,101929.56
2023-05-15T20:50:02.687Z,101933.94
2023-05-15T20:52:29.367Z,101930.41
2023-05-15T20:54:55.978Z,101927.94
2023-05-15T20:57:22.499Z,101928.06
2023-05-15T20:59:49.052Z,101920.13
2023-05-15T21:02:16.110Z,101924.31
2023-05-15T21:04:43.086Z,101927.75
2023-05-15T21:07:09.669Z,101931.41
2023-05-15T21:09:36.264Z,101943.16
2023-05-15T21:12:04.093Z,101936.16
2023-05-15T21:14:30.859Z,101938.81
2023-05-15T21:16:57.780Z,101935.47
2023-05-15T21:19:24.485Z,101943.16
2023-05-15T21:21:51.191Z,101939.78
2023-05-15T21:24:18.063Z,101941.78
2023-05-15T21:26:44.805Z,101953.84
2023-05-15T21:29:11.599Z,101936.69
2023-05-15T21:31:38.398Z,101941.84
2023-05-15T21:34:05.137Z,101948.72
2023-05-15T21:36:31.712Z,101950.47
2023-05-15T21:38:58.323Z,101946.13
2023-05-15T21:41:26.090Z,101962.47
2023-05-15T21:43:52.742Z,101958.28
2023-05-15T21:46:19.491Z,101965.84
2023-05-15T21:48:46.592Z,101958.91
2023-05-15T21:51:13.215Z,101962.19
2023-05-15T21:53:39.934Z,101963.78
2023-05-15T21:56:06.937Z,101964.56
2023-05-15T21:58:33.548Z,101949.88
2023-05-15T22:01:00.152Z,101960.28
2023-05-15T22:03:27.030Z,101966.25
2023-05-15T22:05:53.672Z,101969.84
2023-05-15T22:08:21.210Z,101966.53
2023-05-15T22:10:48.956Z,101960.28
2023-05-15T22:13:15.624Z,101965.44
2023-05-15T22:15:42.366Z,101966.75
2023-05-15T22:18:09.721Z,101967.50
2023-05-15T22:20:36.318Z,101968.34
2023-05-15T22:23:02.970Z,101973.53
2023-05-15T22:25:29.634Z,101988.03
2023-05-15T22:27:56.554Z,101979.31
2023-05-15T22:30:23.231Z,101975.63
2023-05-15T22:32:49.846Z,101979.00
2023-05-15T22:35:16.572Z,101981.81
2023-05-15T22:37:45.384Z,101986.03
2023-05-15T22:40:12.682Z,101984.34
2023-05-15T22:42:39.286Z,101995.56
2023-05-15T22:45:06.544Z,101983.47
2023-05-15T22:47:33.700Z,101994.28
2023-05-15T22:50:00.299Z,101999.72
2023-05-15T22:52:27.042Z,101999.78
2023-05-15T22:54:53.786Z,102005.63
2023-05-15T22:57:20.490Z,102011.34
2023-05-15T22:59:47.000Z,102011.22
2023-05-15T23:02:13.578Z,102017.13
2023-05-15T23:04:40.166Z,102010.91
2023-05-15T23:07:06.889Z,102016.03
2023-05-15T23:09:33.520Z,102019.44
2023-05-15T23:12:00.737Z,102016.78
2023-05-15T23:14:27.412Z,102009.78
2023-05-15T23:16:54.041Z,102019.03
2023-05-15T23:19:20.792Z,102018.00
2023-05-15T23:21:47.435Z,102022.13
2023-05-15T23:24:14.050Z,102016.97
2023-05-15T23:26:40.749Z,102015.31
2023-05-15T23:29:07.328Z,102012.66
2023-05-15T23:31:34.350Z,102012.59
2023-05-15T23:34:00.996Z,102016.03
2023-05-15T23:36:27.589Z,102027.13
2023-05-15T23:38:54.143Z,102025.34
2023-05-15T23:41:21.991Z,102026.03
2023-05-15T23:43:50.518Z,102019.59
2023-05-15T23:46:17.715Z,102022.19
2023-05-15T23:48:44.895Z,102021.91
2023-05-15T23:51:11.437Z,102023.47
2023-05-15T23:53:37.997Z,102021.56
2023-05-15T23:56:04.909Z,102023.16
2023-05-15T23:58:31.482Z,102010.25
